createdAt,value
2022-10-05T00:00:17.383Z,14.40
2022-10-05T00:02:46.858Z,14.40
2022-10-05T00:05:26.366Z,14.40
2022-10-05T00:07:58.301Z,14.50
2022-10-05T00:10:27.129Z,14.40
2022-10-05T00:12:55.207Z,14.50
2022-10-05T00:15:24.849Z,14.40
2022-10-05T00:17:53.082Z,14.40
2022-10-05T00:20:25.011Z,14.40
2022-10-05T00:23:00.036Z,14.30
2022-10-05T00:25:28.199Z,14.30
2022-10-05T00:27:58.043Z,14.30
2022-10-05T00:30:33.941Z,14.40
2022-10-05T00:33:02.145Z,14.30
2022-10-05T00:35:30.877Z,14.20
2022-10-05T00:37:59.749Z,14.20
2022-10-05T00:40:47.386Z,14.20
2022-10-05T00:43:35.044Z,14.30
2022-10-05T00:46:12.582Z,14.30
2022-10-05T00:48:50.763Z,14.20
2022-10-05T00:51:25.676Z,14.20
2022-10-05T00:54:18.469Z,14.20
2022-10-05T00:57:10.682Z,14.20
2022-10-05T00:59:49.384Z,14.10
2022-10-05T01:02:26.608Z,14.10
2022-10-05T01:05:01.801Z,14.10
2022-10-05T01:07:38.991Z,14.10
2022-10-05T01:10:15.917Z,14.00
2022-10-05T01:12:54.114Z,14.10
2022-10-05T01:15:29.808Z,14.00
2022-10-05T01:18:06.719Z,14.00
2022-10-05T01:20:45.628Z,14.00
2022-10-05T01:23:36.684Z,14.00
2022-10-05T01:26:21.956Z,13.90
2022-10-05T01:29:00.419Z,13.90
2022-10-05T01:31:43.307Z,13.90
2022-10-05T01:34:24.544Z,13.90
2022-10-05T01:37:04.658Z,13.90
2022-10-05T01:39:46.930Z,13.90
2022-10-05T01:42:24.543Z,13.90
2022-10-05T01:45:05.437Z,13.90
2022-10-05T01:47:45.037Z,13.90
2022-10-05T01:50:23.865Z,13.90
2022-10-05T01:52:59.489Z,13.90
2022-10-05T01:55:36.896Z,13.90
2022-10-05T01:58:12.700Z,13.90
2022-10-05T02:00:50.643Z,13.90
2022-10-05T02:03:23.087Z,13.90
2022-10-05T02:05:55.539Z,13.90
2022-10-05T02:08:28.422Z,13.90
2022-10-05T02:11:02.097Z,13.90
2022-10-05T02:13:36.019Z,13.80
2022-10-05T02:16:10.352Z,13.80
2022-10-05T02:18:43.080Z,13.80
2022-10-05T02:21:11.890Z,13.80
2022-10-05T02:23:43.998Z,13.80
2022-10-05T02:26:14.048Z,13.80
2022-10-05T02:28:49.435Z,13.80
2022-10-05T02:31:23.647Z,13.80
2022-10-05T02:33:51.983Z,13.80
2022-10-05T02:36:29.147Z,13.90
2022-10-05T02:39:07.045Z,13.80
2022-10-05T02:41:44.238Z,13.80
2022-10-05T02:44:20.963Z,13.80
2022-10-05T02:47:01.345Z,13.80
2022-10-05T02:49:37.023Z,13.80
2022-10-05T02:52:14.978Z,13.90
2022-10-05T02:54:54.384Z,13.90
2022-10-05T02:57:29.481Z,13.90
2022-10-05T03:00:04.588Z,13.90
2022-10-05T03:02:41.796Z,13.90
2022-10-05T03:05:19.935Z,13.90
2022-10-05T03:07:57.325Z,13.90
2022-10-05T03:10:32.944Z,13.90
2022-10-05T03:13:06.692Z,13.90
2022-10-05T03:15:54.801Z,13.90
2022-10-05T03:18:34.513Z,13.90
2022-10-05T03:21:14.392Z,13.90
2022-10-05T03:23:55.986Z,13.90
2022-10-05T03:26:35.822Z,14.00
2022-10-05T03:29:11.236Z,14.00
2022-10-05T03:31:46.428Z,14.00
2022-10-05T03:34:21.593Z,14.00
2022-10-05T03:36:56.334Z,14.10
2022-10-05T03:39:28.183Z,14.00
2022-10-05T03:42:05.626Z,14.10
2022-10-05T03:44:40.577Z,14.20
2022-10-05T03:47:20.811Z,14.10
2022-10-05T03:50:01.131Z,14.10
2022-10-05T03:52:36.291Z,14.10
2022-10-05T03:55:13.133Z,14.10
2022-10-05T03:57:43.901Z,14.20
2022-10-05T04:00:16.970Z,14.20
2022-10-05T04:02:51.050Z,14.20
2022-10-05T04:05:24.193Z,14.20
2022-10-05T04:07:57.983Z,14.10
2022-10-05T04:10:29.131Z,14.10
2022-10-05T04:13:03.588Z,14.20
2022-10-05T04:15:36.348Z,14.10
2022-10-05T04:18:11.510Z,14.20
2022-10-05T04:20:46.244Z,14.20
2022-10-05T04:23:23.601Z,14.30
2022-10-05T04:25:55.044Z,14.30
2022-10-05T04:28:32.207Z,14.30
2022-10-05T04:31:05.001Z,14.30
2022-10-05T04:33:33.758Z,14.30
2022-10-05T04:36:20.246Z,14.20
2022-10-05T04:39:11.466Z,14.20
2022-10-05T04:42:00.181Z,14.20
2022-10-05T04:44:46.893Z,14.20
2022-10-05T04:47:32.327Z,14.20
2022-10-05T04:50:14.216Z,14.20
2022-10-05T04:52:53.262Z,14.20
2022-10-05T04:55:31.492Z,14.20
2022-10-05T04:58:10.027Z,14.20
2022-10-05T05:00:49.889Z,14.30
2022-10-05T05:03:45.656Z,14.30
2022-10-05T05:06:25.879Z,14.30
2022-10-05T05:09:13.772Z,14.30
2022-10-05T05:11:52.113Z,14.30
2022-10-05T05:15:06.767Z,14.30
2022-10-05T05:17:54.837Z,14.30
2022-10-05T05:20:29.086Z,14.30
2022-10-05T05:23:11.817Z,14.30
2022-10-05T05:25:49.303Z,14.40
2022-10-05T05:28:27.214Z,14.40
2022-10-05T05:31:07.641Z,14.40
2022-10-05T05:33:47.085Z,14.40
2022-10-05T05:36:44.584Z,14.40
2022-10-05T05:39:25.716Z,14.40
2022-10-05T05:42:01.688Z,14.40
2022-10-05T05:44:38.564Z,14.40
2022-10-05T05:47:17.770Z,14.40
2022-10-05T05:49:59.296Z,14.40
2022-10-05T05:52:35.839Z,14.40
2022-10-05T05:55:14.611Z,14.40
2022-10-05T05:57:50.829Z,14.40
2022-10-05T06:00:23.237Z,14.40
2022-10-05T06:02:58.200Z,14.40
2022-10-05T06:05:32.215Z,14.40
2022-10-05T06:08:07.166Z,14.30
2022-10-05T06:10:42.848Z,14.40
2022-10-05T06:13:19.338Z,14.40
2022-10-05T06:15:53.031Z,14.40
2022-10-05T06:18:23.519Z,14.50
2022-10-05T06:20:58.176Z,14.50
2022-10-05T06:23:32.238Z,14.60
2022-10-05T06:26:12.678Z,14.60
2022-10-05T06:28:43.286Z,14.60
2022-10-05T06:31:22.245Z,14.70
2022-10-05T06:33:52.717Z,14.70
2022-10-05T06:36:41.315Z,14.70
2022-10-05T06:39:41.827Z,14.70
2022-10-05T06:42:39.360Z,14.80
2022-10-05T06:45:25.141Z,14.80
2022-10-05T06:48:05.669Z,14.90
2022-10-05T06:50:47.649Z,14.90
2022-10-05T06:53:31.673Z,14.90
2022-10-05T06:56:07.966Z,15.00
2022-10-05T06:58:51.805Z,15.00
2022-10-05T07:01:33.691Z,15.10
2022-10-05T07:04:17.013Z,15.10
2022-10-05T07:06:49.320Z,15.10
2022-10-05T07:09:27.755Z,15.10
2022-10-05T07:12:22.598Z,15.10
2022-10-05T07:15:06.924Z,15.20
2022-10-05T07:17:51.102Z,15.20
2022-10-05T07:20:26.949Z,15.20
2022-10-05T07:23:26.924Z,15.20
2022-10-05T07:26:04.079Z,15.20
2022-10-05T07:28:42.879Z,15.30
2022-10-05T07:31:17.055Z,15.30
2022-10-05T07:33:52.686Z,15.30
2022-10-05T07:36:52.247Z,15.30
2022-10-05T07:39:55.402Z,15.40
2022-10-05T07:42:32.114Z,15.40
2022-10-05T07:45:14.071Z,15.40
2022-10-05T07:47:49.472Z,15.50
2022-10-05T07:50:25.351Z,15.50
2022-10-05T07:52:58.910Z,15.50
2022-10-05T07:55:29.069Z,15.50
2022-10-05T07:58:07.180Z,15.50
2022-10-05T08:01:03.603Z,15.60
2022-10-05T08:03:42.616Z,15.60
2022-10-05T08:06:35.860Z,15.70
2022-10-05T08:09:11.573Z,15.70
2022-10-05T08:11:50.828Z,15.70
2022-10-05T08:14:29.749Z,15.80
2022-10-05T08:17:01.333Z,15.80
2022-10-05T08:19:37.777Z,15.90
2022-10-05T08:22:13.862Z,15.90
2022-10-05T08:24:47.218Z,16.00
2022-10-05T08:27:25.306Z,16.00
2022-10-05T08:30:02.140Z,16.00
2022-10-05T08:32:35.344Z,16.10
2022-10-05T08:35:16.116Z,16.10
2022-10-05T08:37:47.277Z,16.10
2022-10-05T08:40:36.127Z,16.20
2022-10-05T08:43:15.872Z,16.20
2022-10-05T08:46:03.179Z,16.20
2022-10-05T08:48:56.336Z,16.20
2022-10-05T08:51:50.825Z,16.30
2022-10-05T08:54:46.753Z,16.40
2022-10-05T08:57:53.650Z,16.50
2022-10-05T09:00:23.673Z,16.60
2022-10-05T09:03:20.730Z,16.60
2022-10-05T09:06:31.667Z,16.60
2022-10-05T09:09:29.474Z,16.60
2022-10-05T09:12:28.162Z,16.60
2022-10-05T09:15:25.370Z,16.70
2022-10-05T09:18:35.621Z,16.70
2022-10-05T09:21:10.628Z,16.80
2022-10-05T09:23:42.880Z,16.90
2022-10-05T09:26:46.191Z,16.80
2022-10-05T09:29:53.451Z,16.90
2022-10-05T09:32:54.446Z,16.90
2022-10-05T09:35:39.722Z,16.90
2022-10-05T09:38:22.194Z,17.00
2022-10-05T09:41:26.203Z,17.10
2022-10-05T09:44:27.565Z,17.10
2022-10-05T09:47:09.485Z,17.20
2022-10-05T09:49:59.741Z,17.20
2022-10-05T09:53:09.706Z,17.50
2022-10-05T09:56:03.697Z,17.70
2022-10-05T09:59:12.150Z,17.90
2022-10-05T10:02:02.465Z,18.20
2022-10-05T10:05:09.397Z,18.70
2022-10-05T10:08:07.201Z,19.00
2022-10-05T10:11:12.828Z,19.10
2022-10-05T10:14:03.426Z,19.40
2022-10-05T10:16:53.652Z,19.70
2022-10-05T10:19:57.911Z,19.90
2022-10-05T10:23:03.729Z,20.20
2022-10-05T10:25:55.395Z,20.80
2022-10-05T10:28:46.053Z,21.20
2022-10-05T10:31:50.099Z,21.40
2022-10-05T10:34:54.171Z,21.40
2022-10-05T10:37:40.530Z,21.60
2022-10-05T10:40:28.042Z,21.80
2022-10-05T10:43:24.407Z,21.90
2022-10-05T10:46:03.231Z,22.00
2022-10-05T10:48:57.421Z,22.10
2022-10-05T10:51:56.967Z,22.30
2022-10-05T10:54:49.826Z,22.50
2022-10-05T10:57:26.673Z,22.60
2022-10-05T11:00:18.298Z,22.40
2022-10-05T11:03:36.661Z,22.60
2022-10-05T11:06:28.175Z,22.70
2022-10-05T11:09:32.838Z,22.80
2022-10-05T11:12:34.676Z,22.80
2022-10-05T11:15:13.108Z,22.50
2022-10-05T11:18:07.752Z,22.30
2022-10-05T11:20:59.117Z,22.20
2022-10-05T11:23:50.980Z,22.10
2022-10-05T11:27:00.979Z,22.00
2022-10-05T11:30:17.008Z,21.80
2022-10-05T11:33:13.399Z,21.80
2022-10-05T11:36:04.836Z,22.00
2022-10-05T11:39:08.877Z,21.90
2022-10-05T11:42:09.591Z,21.90
2022-10-05T11:45:15.640Z,22.00
2022-10-05T11:48:13.343Z,22.00
2022-10-05T11:50:51.272Z,21.90
2022-10-05T11:53:25.663Z,21.90
2022-10-05T11:56:04.249Z,21.90
2022-10-05T11:58:37.491Z,21.90
2022-10-05T12:01:17.520Z,21.80
2022-10-05T12:03:59.483Z,21.60
2022-10-05T12:06:44.514Z,21.70
2022-10-05T12:09:28.164Z,21.50
2022-10-05T12:12:09.943Z,21.50
2022-10-05T12:15:04.370Z,21.50
2022-10-05T12:17:45.357Z,21.40
2022-10-05T12:20:19.563Z,21.40
2022-10-05T12:22:54.868Z,21.50
2022-10-05T12:25:31.889Z,21.50
2022-10-05T12:28:05.238Z,21.50
2022-10-05T12:31:04.537Z,21.50
2022-10-05T12:33:40.137Z,21.50
2022-10-05T12:36:14.869Z,21.50
2022-10-05T12:38:49.695Z,21.60
2022-10-05T12:41:24.381Z,21.60
2022-10-05T12:44:03.778Z,21.60
2022-10-05T12:46:39.206Z,21.60
2022-10-05T12:49:25.331Z,21.60
2022-10-05T12:51:58.886Z,21.70
2022-10-05T12:54:38.784Z,21.70
2022-10-05T12:57:16.717Z,21.60
2022-10-05T12:59:52.611Z,21.60
2022-10-05T13:02:33.710Z,21.50
2022-10-05T13:05:12.929Z,21.50
2022-10-05T13:07:53.275Z,21.40
2022-10-05T13:10:32.340Z,21.40
2022-10-05T13:13:14.617Z,21.50
2022-10-05T13:15:50.009Z,21.60
2022-10-05T13:18:27.303Z,21.70
2022-10-05T13:21:02.864Z,21.80
2022-10-05T13:23:44.892Z,21.80
2022-10-05T13:26:19.220Z,21.80
2022-10-05T13:28:55.990Z,21.80
2022-10-05T13:31:28.244Z,21.90
2022-10-05T13:34:06.980Z,21.80
2022-10-05T13:36:45.195Z,21.80
2022-10-05T13:39:34.143Z,21.80
2022-10-05T13:42:14.873Z,21.80
2022-10-05T13:44:49.846Z,21.90
2022-10-05T13:47:29.213Z,22.00
2022-10-05T13:50:04.791Z,22.10
2022-10-05T13:52:44.819Z,22.20
2022-10-05T13:55:23.116Z,22.10
2022-10-05T13:58:03.390Z,22.20
2022-10-05T14:00:32.938Z,22.10
2022-10-05T14:03:02.138Z,22.10
2022-10-05T14:05:31.774Z,22.10
2022-10-05T14:08:17.675Z,22.10
2022-10-05T14:10:48.037Z,22.20
2022-10-05T14:13:28.042Z,22.10
2022-10-05T14:16:04.773Z,22.20
2022-10-05T14:18:35.081Z,22.20
2022-10-05T14:21:18.211Z,22.20
2022-10-05T14:23:46.764Z,22.20
2022-10-05T14:26:33.687Z,22.20
2022-10-05T14:29:16.483Z,22.20
2022-10-05T14:31:52.432Z,22.20
2022-10-05T14:34:38.085Z,22.20
2022-10-05T14:37:19.491Z,22.20
2022-10-05T14:39:50.629Z,22.20
2022-10-05T14:42:20.867Z,22.30
2022-10-05T14:45:02.283Z,22.10
2022-10-05T14:47:34.270Z,22.20
2022-10-05T14:50:18.638Z,22.20
2022-10-05T14:53:00.561Z,22.30
2022-10-05T14:55:56.529Z,22.30
2022-10-05T14:58:47.085Z,22.20
2022-10-05T15:01:25.241Z,22.10
2022-10-05T15:04:05.315Z,22.10
2022-10-05T15:06:39.240Z,22.00
2022-10-05T15:09:29.714Z,21.80
2022-10-05T15:12:01.027Z,21.80
2022-10-05T15:14:41.268Z,21.70
2022-10-05T15:17:18.134Z,21.70
2022-10-05T15:20:05.162Z,21.60
2022-10-05T15:22:42.504Z,21.60
2022-10-05T15:25:17.100Z,21.40
2022-10-05T15:28:05.605Z,21.30
2022-10-05T15:30:42.063Z,21.20
2022-10-05T15:33:27.431Z,21.20
2022-10-05T15:36:39.458Z,21.10
2022-10-05T15:39:23.284Z,21.00
2022-10-05T15:42:08.571Z,20.90
2022-10-05T15:44:55.138Z,20.80
2022-10-05T15:47:35.088Z,20.70
2022-10-05T15:50:15.723Z,20.60
2022-10-05T15:52:50.610Z,20.60
2022-10-05T15:55:38.361Z,20.50
2022-10-05T15:58:28.815Z,20.60
2022-10-05T16:01:08.547Z,20.50
2022-10-05T16:03:51.988Z,20.40
2022-10-05T16:06:57.523Z,20.30
2022-10-05T16:09:40.425Z,20.20
2022-10-05T16:12:19.403Z,20.20
2022-10-05T16:15:08.992Z,20.10
2022-10-05T16:17:55.012Z,20.10
2022-10-05T16:20:31.785Z,20.10
2022-10-05T16:23:07.556Z,20.20
2022-10-05T16:25:48.773Z,20.10
2022-10-05T16:28:30.105Z,20.00
2022-10-05T16:31:03.909Z,19.90
2022-10-05T16:33:55.322Z,19.90
2022-10-05T16:36:37.198Z,19.80
2022-10-05T16:39:15.725Z,19.60
2022-10-05T16:41:52.910Z,19.50
2022-10-05T16:44:33.551Z,19.40
2022-10-05T16:47:08.972Z,19.40
2022-10-05T16:49:47.005Z,19.40
2022-10-05T16:52:19.380Z,19.30
2022-10-05T16:54:53.516Z,19.20
2022-10-05T16:57:23.683Z,19.10
2022-10-05T17:00:13.477Z,19.00
2022-10-05T17:03:10.555Z,19.00
2022-10-05T17:05:55.884Z,18.90
2022-10-05T17:09:00.303Z,18.90
2022-10-05T17:11:42.118Z,18.80
2022-10-05T17:14:30.861Z,18.60
2022-10-05T17:17:24.330Z,18.60
2022-10-05T17:20:05.466Z,18.60
2022-10-05T17:22:39.576Z,18.60
2022-10-05T17:25:18.951Z,18.50
2022-10-05T17:27:56.676Z,18.50
2022-10-05T17:30:50.418Z,18.50
2022-10-05T17:33:27.716Z,18.50
2022-10-05T17:36:13.264Z,18.50
2022-10-05T17:38:53.651Z,18.50
2022-10-05T17:41:28.229Z,18.50
2022-10-05T17:44:26.600Z,18.50
2022-10-05T17:46:57.366Z,18.60
2022-10-05T17:50:15.810Z,18.60
2022-10-05T17:53:02.609Z,18.60
2022-10-05T17:56:03.155Z,18.60
2022-10-05T17:59:01.166Z,18.60
2022-10-05T18:01:34.512Z,18.50
2022-10-05T18:04:42.220Z,18.50
2022-10-05T18:07:21.114Z,18.60
2022-10-05T18:10:00.431Z,18.50
2022-10-05T18:12:48.728Z,18.40
2022-10-05T18:15:49.169Z,18.50
2022-10-05T18:18:56.560Z,18.50
2022-10-05T18:21:38.810Z,18.50
2022-10-05T18:24:56.080Z,18.40
2022-10-05T18:27:56.423Z,18.40
2022-10-05T18:30:26.614Z,18.40
2022-10-05T18:33:18.921Z,18.40
2022-10-05T18:36:01.991Z,18.40
2022-10-05T18:38:53.164Z,18.40
2022-10-05T18:41:34.748Z,18.30
2022-10-05T18:44:25.889Z,18.40
2022-10-05T18:47:03.476Z,18.40
2022-10-05T18:49:58.436Z,18.40
2022-10-05T18:52:39.707Z,18.40
2022-10-05T18:55:18.327Z,18.40
2022-10-05T18:58:20.962Z,18.30
2022-10-05T19:01:06.554Z,18.30
2022-10-05T19:03:46.431Z,18.40
2022-10-05T19:06:25.154Z,18.30
2022-10-05T19:09:06.691Z,18.30
2022-10-05T19:11:45.772Z,18.40
2022-10-05T19:14:24.127Z,18.40
2022-10-05T19:17:07.140Z,18.40
2022-10-05T19:19:54.167Z,18.40
2022-10-05T19:22:37.283Z,18.40
2022-10-05T19:25:25.158Z,18.30
2022-10-05T19:28:03.723Z,18.40
2022-10-05T19:30:45.810Z,18.40
2022-10-05T19:33:33.748Z,18.40
2022-10-05T19:36:18.052Z,18.40
2022-10-05T19:38:58.159Z,18.40
2022-10-05T19:41:35.317Z,18.40
2022-10-05T19:44:25.193Z,18.30
2022-10-05T19:47:02.533Z,18.30
2022-10-05T19:49:39.076Z,18.30
2022-10-05T19:52:15.388Z,18.40
2022-10-05T19:54:43.854Z,18.30
2022-10-05T19:57:18.158Z,18.40
2022-10-05T19:59:49.298Z,18.40
2022-10-05T20:02:18.187Z,18.40
2022-10-05T20:04:49.655Z,18.40
2022-10-05T20:07:21.719Z,18.40
2022-10-05T20:09:56.836Z,18.30
2022-10-05T20:12:51.876Z,18.30
2022-10-05T20:15:41.604Z,18.30
2022-10-05T20:18:55.279Z,18.30
2022-10-05T20:21:51.563Z,18.30
2022-10-05T20:24:22.432Z,18.40
2022-10-05T20:27:16.086Z,18.30
2022-10-05T20:29:46.912Z,18.30
2022-10-05T20:32:18.232Z,18.30
2022-10-05T20:34:49.520Z,18.20
2022-10-05T20:37:19.544Z,18.20
2022-10-05T20:39:48.559Z,18.30
2022-10-05T20:42:16.782Z,18.30
2022-10-05T20:44:45.437Z,18.30
2022-10-05T20:47:14.933Z,18.20
2022-10-05T20:49:44.781Z,18.20
2022-10-05T20:52:15.144Z,18.20
2022-10-05T20:54:43.471Z,18.20
2022-10-05T20:57:12.535Z,18.20
2022-10-05T20:59:41.010Z,18.20
2022-10-05T21:02:09.953Z,18.20
2022-10-05T21:04:41.187Z,18.10
2022-10-05T21:07:11.474Z,18.20
2022-10-05T21:09:42.289Z,18.10
2022-10-05T21:12:10.982Z,18.10
2022-10-05T21:14:40.579Z,18.10
2022-10-05T21:17:10.729Z,18.00
2022-10-05T21:19:40.357Z,18.00
2022-10-05T21:22:11.182Z,17.90
2022-10-05T21:24:41.055Z,17.90
2022-10-05T21:27:10.442Z,17.80
2022-10-05T21:29:41.116Z,17.90
2022-10-05T21:32:11.559Z,17.80
2022-10-05T21:34:41.722Z,17.80
2022-10-05T21:37:11.453Z,17.70
2022-10-05T21:39:39.628Z,17.50
2022-10-05T21:42:08.181Z,17.30
2022-10-05T21:44:36.427Z,17.20
2022-10-05T21:47:06.922Z,17.00
2022-10-05T21:49:36.596Z,16.90
2022-10-05T21:52:06.705Z,16.70
2022-10-05T21:54:36.630Z,16.70
2022-10-05T21:57:05.289Z,16.50
2022-10-05T21:59:35.773Z,16.30
2022-10-05T22:02:05.412Z,16.20
2022-10-05T22:04:34.534Z,16.20
2022-10-05T22:07:18.869Z,16.20
2022-10-05T22:09:50.546Z,16.10
2022-10-05T22:12:21.258Z,16.10
2022-10-05T22:14:51.010Z,16.10
2022-10-05T22:17:24.003Z,16.10
2022-10-05T22:19:53.306Z,16.20
2022-10-05T22:22:22.947Z,16.10
2022-10-05T22:24:55.225Z,16.20
2022-10-05T22:27:25.439Z,16.20
2022-10-05T22:29:54.223Z,16.20
2022-10-05T22:32:22.951Z,16.20
2022-10-05T22:34:51.047Z,16.20
2022-10-05T22:37:19.222Z,16.30
2022-10-05T22:39:48.315Z,16.20
2022-10-05T22:42:17.783Z,16.20
2022-10-05T22:44:45.880Z,16.10
2022-10-05T22:47:14.577Z,16.10
2022-10-05T22:49:42.731Z,16.10
2022-10-05T22:52:11.093Z,16.00
2022-10-05T22:54:39.558Z,16.00
2022-10-05T22:57:07.700Z,16.00
2022-10-05T22:59:37.250Z,16.00
2022-10-05T23:02:05.607Z,16.00
2022-10-05T23:04:33.936Z,16.00
2022-10-05T23:07:02.052Z,16.00
2022-10-05T23:09:31.711Z,16.00
2022-10-05T23:11:59.858Z,16.10
2022-10-05T23:14:29.356Z,16.10
2022-10-05T23:16:59.549Z,16.10
2022-10-05T23:19:27.844Z,16.00
2022-10-05T23:21:58.124Z,16.00
2022-10-05T23:24:26.314Z,15.90
2022-10-05T23:26:55.013Z,15.90
2022-10-05T23:29:23.317Z,15.90
2022-10-05T23:31:51.702Z,15.90
2022-10-05T23:34:21.413Z,15.70
2022-10-05T23:36:51.178Z,15.60
2022-10-05T23:39:19.422Z,15.60
2022-10-05T23:41:47.637Z,15.60
2022-10-05T23:44:16.247Z,15.60
2022-10-05T23:46:44.541Z,15.60
2022-10-05T23:49:14.816Z,15.50
2022-10-05T23:51:44.966Z,15.50
2022-10-05T23:54:13.512Z,15.30
2022-10-05T23:56:41.841Z,15.40
2022-10-05T23:59:10.129Z,15.40
